Nearby METAR Reports

 

KAFF - US Air Force Academy
Distance from station: W 3mi, 4km
Updated: Sun, Nov-27-2022 4:55am MST
Light snow, Overcast
Light snow, Overcast
 Wind from calm
Wind: Calm
Temperature: 28°F , -2°C
Dew Point: 23°F , -5°C
Humidity: 80%
Barometer: 29.93 inHg , 1013.5 hPa
Summary: Light Snow
Clouds: Overcast
Visibility: 10 miles , 16 km
Cloud details: Partly cloudy 2600 ft
Overcast 3200 ft
2022/11/27 11:55 KAFF 271155Z 00000KT 10SM -SN SCT026 OVC032 M02/M05 A2993 RMK AO2A SNB24E44B54 SLP136 60000 T10161048 10014 21033 50001
KCOS - Colorado Springs Municipal
Distance from station: SSE 11mi, 18km
Updated: Sun, Nov-27-2022 5:15am MST
Light snow, Overcast
Light snow, Overcast
 Wind from calm
Wind: Calm
Temperature: 34°F , 1°C
Dew Point: 25°F , -4°C
Humidity: 70%
Barometer: 29.97 inHg , 1014.9 hPa
Summary: Light Snow
Clouds: Overcast
Visibility: 2 1/2 miles , 4 km
Cloud details: Partly cloudy 2300 ft
Mostly cloudy 2800 ft
Overcast 4600 ft
2022/11/27 12:15 KCOS 271215Z 00000KT 2 1/2SM -SN SCT023 BKN028 OVC046 01/M04 A2997 RMK AO2 P0000 T00061039 $
 
KFLY - Colorado Springs Meadow
Distance from station: E 11mi, 18km
Updated: Sun, Nov-27-2022 5:15am MST
Light snow, Overcast
Light snow, Overcast
 Wind from W
Wind: W 10 mph , 17 km/h
Temperature: 28°F , -2°C
Wind Chill: 19°F , -7°C
Dew Point: 27°F , -3°C
Humidity: 93%
Barometer: 29.96 inHg , 1014.6 hPa
Summary: Light Snow
Clouds: Overcast
Visibility: 2 miles , 3 km
Cloud details: Overcast 2200 ft
2022/11/27 12:15 KFLY 271215Z AUTO 27009KT 2SM -SN OVC022 M02/M03 A2996 RMK AO2 T10171034
KCWN - Cheyenne Mountain
Distance from station: SSW 15mi, 24km
Updated: Sun, Nov-27-2022 5:20am MST
Light snow, Mist, Overcast
Light snow, Mist, Overcast
 Wind from S
Wind: S 7 mph , 11 km/h
Temperature: 28°F , -2°C
Wind Chill: 21°F , -6°C
Dew Point: 28°F , -2°C
Humidity: 100%
Barometer: 29.26 inHg , 990.9 hPa
Summary: Light snow, Mist
Clouds: Overcast
Visibility: 4 miles , 6 km
Cloud details: Mostly cloudy 1000 ft
Overcast 1900 ft
2022/11/27 12:20 KCWN 271220Z AUTO 17006KT 4SM -SN BR BKN010 OVC019 M02/M02 A2926 RMK AO2 CIG 008V010 SLP816
 
KMNH - Monument/Elbert
Distance from station: NNE 19mi, 30km
Updated: Sun, Nov-27-2022 5:15am MST
Light snow, Overcast
Light snow, Overcast
 Wind from calm
Wind: Calm
Temperature: 27°F , -3°C
Dew Point: 21°F , -6°C
Humidity: 80%
Barometer: 29.95 inHg , 1014.2 hPa
Summary: Light Snow
Clouds: Overcast
Visibility: 3 miles , 5 km
Cloud details: Partly cloudy 1000 ft
Partly cloudy 1400 ft
Overcast 2100 ft
2022/11/27 12:15 KMNH 271215Z AUTO 00000KT 3SM -SN SCT010 SCT014 OVC021 M03/M06 A2995 RMK AO2
KFCS - Fort Carson
Distance from station: S 20mi, 33km
Updated: Sun, Nov-27-2022 5:07am MST
Light snow, Overcast
Light snow, Overcast
 Wind from SSW
Wind: SSW 5 mph , 7 km/h
Temperature: 32°F , 0°C
Wind Chill: 27°F , -3°C
Dew Point: 27°F , -3°C
Humidity: 80%
Barometer: 29.95 inHg , 1014.2 hPa
Summary: Light Snow
Clouds: Overcast
Visibility: 10 miles , 16 km
Cloud details: Mostly cloudy 2300 ft
Mostly cloudy 2900 ft
Overcast 3400 ft
2022/11/27 12:07 KFCS 271207Z AUTO 21004KT 10SM -SN BKN023 BKN029 OVC034 00/M03 A2995 RMK AO2 UPB1159E07SNB07 CIG 023V034 SLP157 $
 
KABH - Ellicot
Distance from station: ESE 29mi, 46km
Updated: Sun, Nov-27-2022 5:20am MST
Light snow, Mist, Overcast
Light snow, Mist, Overcast
 Wind from SW
Wind: SW 7 mph , 11 km/h
Temperature: 28°F , -2°C
Wind Chill: 21°F , -6°C
Dew Point: 27°F , -3°C
Humidity: 93%
Barometer: 29.97 inHg , 1014.9 hPa
Summary: Light snow, Mist
Clouds: Overcast
Visibility: 2 1/2 miles , 4 km
Cloud details: Mostly cloudy 2500 ft
Overcast 3000 ft
2022/11/27 12:20 KABH 271220Z AUTO 22006KT 2 1/2SM -SN BR BKN025 OVC030 M02/M03 A2997 RMK AO2 VIS 2 1/2V3 SLP163
K1V6 - Canon City
Distance from station: SSW 41mi, 65km
Updated: Sun, Nov-27-2022 5:15am MST
Light rain, Overcast
Light rain, Overcast
 Wind from SE
Wind: SE 3 mph , 6 km/h
Temperature: 34°F , 1°C
Dew Point: 32°F , 0°C
Humidity: 93%
Barometer: 29.98 inHg , 1015.2 hPa
Summary: Light rain
Clouds: Overcast
Visibility: 5 miles , 8 km
Cloud details: Partly cloudy 1600 ft
Mostly cloudy 3100 ft
Overcast 3800 ft
2022/11/27 12:15 K1V6 271215Z AUTO 13003KT 5SM -RA SCT016 BKN031 OVC038 01/00 A2998 RMK AO2
 
K4BM - Wilkerson Pass
Distance from station: W 41mi, 65km
Updated: Sun, Nov-27-2022 5:15am MST
Overcast
Overcast
 Wind from SSE
Wind: SSE 5 mph , 7 km/h
Temperature: 18°F , -8°C
Wind Chill: 11°F , -12°C
Dew Point: 14°F , -10°C
Humidity: 86%
Barometer: 29.94 inHg , 1013.9 hPa
Clouds: Overcast
Visibility: 1 1/4 miles , 2 km
Cloud details: Overcast 100 ft
2022/11/27 12:15 K4BM 271215Z AUTO 15004KT 1 1/4SM OVC001 M08/M10 A2994 RMK AO2 PWINO
KAPA - Denver/Arapahoe
Distance from station: N 42mi, 68km
Updated: Sun, Nov-27-2022 4:53am MST
Light snow, Mostly cloudy
Light snow, Mostly cloudy
 Wind from ESE
Wind: ESE 5 mph , 7 km/h
Temperature: 30°F , -1°C
Wind Chill: 25°F , -4°C
Dew Point: 25°F , -4°C
Humidity: 80%
Barometer: 29.94 inHg , 1013.9 hPa
Summary: Light Snow
Clouds: Mostly cloudy
Visibility: 10 miles , 16 km
Cloud details: Partly cloudy 2900 ft
Mostly cloudy 5500 ft
Mostly cloudy 11000 ft
2022/11/27 11:53 KAPA 271153Z 12004KT 10SM -SN SCT029 BKN055 BKN110 M01/M04 A2994 RMK AO2 SLP147 SN VRY LGT P0000 60000 T10111039 10022 21011 56003
 
KPUB - Pueblo
Distance from station: SSE 49mi, 79km
Updated: Sun, Nov-27-2022 4:53am MST
Light snow, Overcast
Light snow, Overcast
 Wind from calm
Wind: Calm
Temperature: 36°F , 2°C
Dew Point: 27°F , -3°C
Humidity: 70%
Barometer: 29.99 inHg , 1015.6 hPa
Summary: Light Snow
Clouds: Overcast
Visibility: 6 miles , 10 km
Cloud details: Overcast 3300 ft
2022/11/27 11:53 KPUB 271153Z AUTO 00000KT 6SM -SN OVC033 02/M03 A2999 RMK AO2 SNB17 SLP140 P0000 60000 T00221028 10056 20017 51006